createdAt,value
2018-04-29T00:01:10.936Z,13.00
2018-04-29T00:03:39.001Z,11.50
2018-04-29T00:06:07.022Z,13.47
2018-04-29T00:08:35.076Z,13.73
2018-04-29T00:11:03.088Z,11.53
2018-04-29T00:13:31.416Z,13.97
2018-04-29T00:15:59.469Z,11.70
2018-04-29T00:18:27.466Z,12.73
2018-04-29T00:20:55.478Z,11.20
2018-04-29T00:23:23.609Z,13.13
2018-04-29T00:25:51.667Z,12.90
2018-04-29T00:28:19.693Z,12.40
2018-04-29T00:30:47.702Z,11.90
2018-04-29T00:33:15.722Z,12.70
2018-04-29T00:35:43.829Z,11.60
2018-04-29T00:38:11.876Z,12.37
2018-04-29T00:40:39.918Z,11.47
2018-04-29T00:43:07.902Z,12.80
2018-04-29T00:45:35.972Z,12.90
2018-04-29T00:48:03.964Z,14.33
2018-04-29T00:50:31.958Z,13.90
2018-04-29T00:52:59.879Z,13.47
2018-04-29T00:55:27.959Z,15.30
2018-04-29T00:57:56.026Z,15.00
2018-04-29T01:00:24.127Z,16.50
2018-04-29T01:02:52.187Z,17.57
2018-04-29T01:05:20.123Z,19.23
2018-04-29T01:07:48.126Z,14.37
2018-04-29T01:10:16.125Z,15.87
2018-04-29T01:12:44.144Z,18.67
2018-04-29T01:15:12.363Z,17.50
2018-04-29T01:17:40.405Z,18.97
2018-04-29T01:20:08.396Z,17.93
2018-04-29T01:22:36.392Z,18.97
2018-04-29T01:25:04.461Z,16.47
2018-04-29T01:27:32.521Z,16.70
2018-04-29T01:30:00.526Z,17.60
2018-04-29T01:32:28.491Z,15.97
2018-04-29T01:34:56.462Z,17.07
2018-04-29T01:37:24.434Z,16.27
2018-04-29T01:39:52.510Z,16.87
2018-04-29T01:42:20.476Z,14.87
2018-04-29T01:44:48.503Z,16.30
2018-04-29T01:47:16.483Z,15.30
2018-04-29T01:49:44.509Z,16.63
2018-04-29T01:52:12.541Z,15.60
2018-04-29T01:54:40.562Z,16.20
2018-04-29T01:57:08.619Z,16.50
2018-04-29T01:59:36.617Z,15.70
2018-04-29T02:02:04.669Z,14.73
2018-04-29T02:04:32.723Z,15.27
2018-04-29T02:07:00.746Z,14.93
2018-04-29T02:09:28.699Z,14.17
2018-04-29T02:11:56.697Z,15.47
2018-04-29T02:14:24.714Z,13.60
2018-04-29T02:16:53.028Z,13.97
2018-04-29T02:19:20.982Z,13.83
2018-04-29T02:21:48.947Z,14.00
2018-04-29T02:24:17.027Z,15.13
2018-04-29T02:26:45.051Z,15.13
2018-04-29T02:29:13.058Z,16.43
2018-04-29T02:31:41.115Z,15.23
2018-04-29T02:34:09.122Z,14.77
2018-04-29T02:36:37.217Z,15.50
2018-04-29T02:39:05.307Z,17.77
2018-04-29T02:41:33.364Z,15.30
2018-04-29T02:44:01.425Z,14.90
2018-04-29T02:46:29.428Z,14.07
2018-04-29T02:48:57.574Z,14.53
2018-04-29T02:51:25.568Z,15.70
2018-04-29T02:53:53.573Z,14.20
2018-04-29T02:56:21.628Z,14.03
2018-04-29T02:58:49.664Z,14.00
2018-04-29T03:04:00.082Z,13.60
2018-04-29T03:06:28.082Z,15.40
2018-04-29T03:08:56.102Z,16.10
2018-04-29T03:11:24.122Z,15.57
2018-04-29T03:13:52.158Z,15.27
2018-04-29T03:16:20.107Z,16.23
2018-04-29T03:18:48.504Z,15.30
2018-04-29T03:21:16.641Z,13.37
2018-04-29T03:23:44.629Z,14.17
2018-04-29T03:26:12.699Z,16.00
2018-04-29T03:28:40.734Z,14.40
2018-04-29T03:31:08.832Z,13.97
2018-04-29T03:33:36.829Z,13.90
2018-04-29T03:36:04.854Z,15.63
2018-04-29T03:38:32.892Z,12.47
2018-04-29T03:41:00.901Z,14.50
2018-04-29T03:43:28.930Z,13.63
2018-04-29T03:45:57.054Z,13.90
2018-04-29T03:48:25.081Z,14.80
2018-04-29T03:50:53.126Z,14.73
2018-04-29T03:53:21.169Z,15.07
2018-04-29T03:55:49.134Z,13.80
2018-04-29T03:58:29.043Z,11.03
2018-04-29T04:01:09.071Z,11.87
2018-04-29T04:03:44.528Z,9.93
2018-04-29T04:06:12.525Z,12.03
2018-04-29T04:08:40.501Z,13.90
2018-04-29T04:11:08.581Z,14.57
2018-04-29T04:13:36.574Z,13.00
2018-04-29T04:16:04.594Z,13.50
2018-04-29T04:18:32.610Z,13.93
2018-04-29T04:21:00.905Z,13.70
2018-04-29T04:23:29.041Z,13.30
2018-04-29T04:25:57.082Z,12.50
2018-04-29T04:28:25.131Z,12.67
2018-04-29T04:30:53.143Z,11.53
2018-04-29T04:33:21.177Z,11.73
2018-04-29T04:35:49.200Z,12.20
2018-04-29T04:38:17.261Z,13.80
2018-04-29T04:40:45.328Z,12.27
2018-04-29T04:43:13.355Z,13.70
2018-04-29T04:45:41.357Z,14.47
2018-04-29T04:48:09.299Z,14.60
2018-04-29T04:50:37.383Z,13.50
2018-04-29T04:53:05.432Z,14.00
2018-04-29T04:55:33.449Z,15.33
2018-04-29T04:58:01.522Z,14.23
2018-04-29T05:00:29.554Z,14.30
2018-04-29T05:02:57.529Z,13.50
2018-04-29T05:05:25.517Z,18.20
2018-04-29T05:07:53.500Z,13.83
2018-04-29T05:10:22.302Z,16.30
2018-04-29T05:12:50.488Z,12.60
2018-04-29T05:15:18.547Z,11.27
2018-04-29T05:17:46.590Z,11.53
2018-04-29T05:20:14.643Z,8.90
2018-04-29T05:22:42.867Z,10.40
2018-04-29T05:25:10.873Z,9.23
2018-04-29T05:27:38.931Z,9.70
2018-04-29T05:30:07.001Z,10.63
2018-04-29T05:32:35.095Z,9.57
2018-04-29T05:35:02.976Z,10.30
2018-04-29T05:37:31.072Z,10.53
2018-04-29T05:39:59.010Z,10.83
2018-04-29T05:42:27.014Z,10.10
2018-04-29T05:44:55.063Z,11.00
2018-04-29T05:47:23.122Z,9.47
2018-04-29T05:49:51.107Z,10.33
2018-04-29T05:52:19.157Z,10.33
2018-04-29T05:54:47.236Z,10.37
2018-04-29T05:57:15.321Z,11.43
2018-04-29T05:59:43.342Z,11.30
2018-04-29T06:02:11.450Z,9.83
2018-04-29T06:04:39.597Z,12.30
2018-04-29T06:07:07.599Z,11.87
2018-04-29T06:09:36.805Z,11.57
2018-04-29T06:12:04.867Z,11.43
2018-04-29T06:14:32.830Z,10.50
2018-04-29T06:17:00.802Z,11.80
2018-04-29T06:19:28.759Z,10.70
2018-04-29T06:21:56.830Z,11.80
2018-04-29T06:24:25.233Z,13.13
2018-04-29T06:26:53.247Z,14.40
2018-04-29T06:29:21.327Z,10.97
2018-04-29T06:31:49.360Z,12.87
2018-04-29T06:34:17.380Z,13.70
2018-04-29T06:36:45.333Z,11.93
2018-04-29T06:39:13.326Z,10.20
2018-04-29T06:41:41.410Z,11.73
2018-04-29T06:44:09.428Z,11.67
2018-04-29T06:46:37.476Z,11.43
2018-04-29T06:49:05.482Z,11.67
2018-04-29T06:51:33.591Z,10.50
2018-04-29T06:54:01.600Z,11.00
2018-04-29T06:56:29.578Z,11.00
2018-04-29T06:58:57.580Z,11.33
2018-04-29T07:01:25.622Z,11.60
2018-04-29T07:03:53.633Z,14.27
2018-04-29T07:06:21.654Z,12.00
2018-04-29T07:08:49.621Z,11.93
2018-04-29T07:11:17.695Z,12.77
2018-04-29T07:13:45.754Z,11.27
2018-04-29T07:16:13.832Z,12.03
2018-04-29T07:18:41.856Z,11.50
2018-04-29T07:21:09.922Z,11.30
2018-04-29T07:23:37.945Z,12.67
2018-04-29T07:26:06.327Z,11.10
2018-04-29T07:28:34.399Z,11.27
2018-04-29T07:31:02.378Z,9.77
2018-04-29T07:33:30.397Z,10.20
2018-04-29T07:35:58.447Z,8.73
2018-04-29T07:38:26.440Z,10.90
2018-04-29T07:40:54.459Z,9.93
2018-04-29T07:43:22.478Z,10.40
2018-04-29T07:45:50.540Z,10.33
2018-04-29T07:48:18.602Z,9.90
2018-04-29T07:50:46.626Z,10.97
2018-04-29T07:53:14.593Z,8.93
2018-04-29T07:55:42.568Z,8.57
2018-04-29T07:58:10.590Z,8.83
2018-04-29T08:00:38.692Z,9.60
2018-04-29T08:03:12.994Z,10.20
2018-04-29T08:05:40.986Z,8.27
2018-04-29T08:08:08.903Z,10.03
2018-04-29T08:10:36.888Z,9.50
2018-04-29T08:13:04.920Z,9.80
2018-04-29T08:15:33.053Z,10.20
2018-04-29T08:18:01.167Z,8.87
2018-04-29T08:20:29.187Z,7.70
2018-04-29T08:22:57.206Z,8.87
2018-04-29T08:25:25.253Z,8.17
2018-04-29T08:27:53.943Z,8.07
2018-04-29T08:30:21.961Z,9.63
2018-04-29T08:32:49.986Z,6.60
2018-04-29T08:35:17.923Z,6.17
2018-04-29T08:37:45.958Z,6.67
2018-04-29T08:40:14.002Z,6.60
2018-04-29T08:42:42.095Z,6.10
2018-04-29T08:45:10.134Z,7.43
2018-04-29T08:47:38.154Z,7.30
2018-04-29T08:50:06.212Z,6.43
2018-04-29T08:52:34.246Z,7.00
2018-04-29T08:55:02.320Z,5.60
2018-04-29T08:57:30.336Z,6.30
2018-04-29T08:59:58.428Z,6.13
2018-04-29T09:02:26.418Z,6.67
2018-04-29T09:04:54.411Z,4.40
2018-04-29T09:07:22.419Z,4.53
2018-04-29T09:09:50.363Z,5.10
2018-04-29T09:12:18.458Z,4.27
2018-04-29T09:14:46.504Z,4.70
2018-04-29T09:17:14.632Z,4.90
2018-04-29T09:19:42.691Z,3.93
2018-04-29T09:22:10.781Z,4.47
2018-04-29T09:24:38.798Z,4.80
2018-04-29T09:27:06.865Z,3.90
2018-04-29T09:29:35.345Z,3.30
2018-04-29T09:32:03.428Z,4.17
2018-04-29T09:34:31.479Z,3.50
2018-04-29T09:36:59.510Z,4.80
2018-04-29T09:39:27.484Z,3.37
2018-04-29T09:41:55.492Z,4.07
2018-04-29T09:44:23.500Z,3.73
2018-04-29T09:46:51.536Z,5.00
2018-04-29T09:49:19.563Z,3.57
2018-04-29T09:51:47.663Z,3.60
2018-04-29T09:54:15.635Z,4.07
2018-04-29T09:56:43.628Z,4.33
2018-04-29T09:59:11.645Z,4.37
2018-04-29T10:01:39.684Z,4.30
2018-04-29T10:04:07.705Z,4.23
2018-04-29T10:06:35.719Z,3.90
2018-04-29T10:09:03.923Z,3.90
2018-04-29T10:11:31.975Z,3.47
2018-04-29T10:13:59.991Z,4.10
2018-04-29T10:16:28.018Z,3.40
2018-04-29T10:18:56.090Z,3.63
2018-04-29T10:21:24.173Z,3.07
2018-04-29T10:23:52.227Z,3.27
2018-04-29T10:26:20.189Z,3.03
2018-04-29T10:28:48.218Z,4.10
2018-04-29T10:31:16.512Z,3.23
2018-04-29T10:33:44.559Z,2.50
2018-04-29T10:36:12.523Z,2.67
2018-04-29T10:38:40.526Z,3.53
2018-04-29T10:41:08.630Z,2.70
2018-04-29T10:43:36.606Z,3.17
2018-04-29T10:46:04.652Z,2.87
2018-04-29T10:48:32.637Z,3.67
2018-04-29T10:51:00.623Z,3.10
2018-04-29T10:53:28.598Z,3.70
2018-04-29T10:55:56.641Z,3.50
2018-04-29T10:58:24.593Z,3.50
2018-04-29T11:00:52.661Z,2.50
2018-04-29T11:03:20.693Z,3.37
2018-04-29T11:05:48.776Z,3.50
2018-04-29T11:08:16.736Z,3.10
2018-04-29T11:10:44.701Z,3.27
2018-04-29T11:13:12.732Z,3.93
2018-04-29T11:15:40.750Z,3.10
2018-04-29T11:18:08.880Z,3.80
2018-04-29T11:20:36.903Z,2.53
2018-04-29T11:23:04.984Z,3.33
2018-04-29T11:25:32.960Z,3.90
2018-04-29T11:28:00.971Z,4.00
2018-04-29T11:30:28.983Z,3.53
2018-04-29T11:32:57.471Z,3.63
2018-04-29T11:35:25.495Z,3.63
2018-04-29T11:37:53.622Z,3.47
2018-04-29T11:40:21.751Z,3.10
2018-04-29T11:42:49.759Z,3.00
2018-04-29T11:45:17.764Z,3.47
2018-04-29T11:47:45.797Z,4.43
2018-04-29T11:50:13.759Z,3.87
2018-04-29T11:52:41.728Z,2.90
2018-04-29T11:55:09.787Z,3.43
2018-04-29T11:57:37.790Z,3.70
2018-04-29T12:00:05.831Z,3.00
2018-04-29T12:02:33.919Z,3.60
2018-04-29T12:05:01.941Z,3.30
2018-04-29T12:07:30.025Z,4.63
2018-04-29T12:09:58.139Z,3.20
2018-04-29T12:12:26.173Z,3.47
2018-04-29T12:14:54.192Z,4.00
2018-04-29T12:17:22.260Z,3.40
2018-04-29T12:19:50.286Z,3.10
2018-04-29T12:22:18.280Z,2.80
2018-04-29T12:24:46.716Z,3.07
2018-04-29T12:27:15.039Z,3.60
2018-04-29T12:29:43.055Z,3.20
2018-04-29T12:32:11.083Z,3.50
2018-04-29T12:34:39.346Z,2.67
2018-04-29T12:37:07.303Z,4.23
2018-04-29T12:39:35.315Z,3.40
2018-04-29T12:42:03.408Z,3.10
2018-04-29T12:44:31.428Z,2.80
2018-04-29T12:46:59.453Z,2.77
2018-04-29T12:49:27.462Z,3.90
2018-04-29T12:51:55.516Z,3.13
2018-04-29T12:54:23.562Z,3.73
2018-04-29T12:56:51.555Z,3.83
2018-04-29T12:59:19.559Z,3.20
2018-04-29T13:01:47.588Z,3.60
2018-04-29T13:04:15.623Z,3.70
2018-04-29T13:06:43.732Z,3.57
2018-04-29T13:09:11.728Z,2.97
2018-04-29T13:11:39.717Z,3.60
2018-04-29T13:14:07.738Z,3.87
2018-04-29T13:16:35.729Z,3.30
2018-04-29T13:19:03.728Z,4.30
2018-04-29T13:21:31.755Z,3.30
2018-04-29T13:23:59.760Z,3.33
2018-04-29T13:26:27.771Z,3.80
2018-04-29T13:28:55.769Z,5.03
2018-04-29T13:31:23.785Z,3.73
2018-04-29T13:33:51.746Z,4.07
2018-04-29T13:36:20.069Z,3.47
2018-04-29T13:38:48.103Z,3.73
2018-04-29T13:41:16.109Z,4.53
2018-04-29T13:43:44.091Z,4.27
2018-04-29T13:46:12.075Z,3.63
2018-04-29T13:48:40.069Z,3.87
2018-04-29T13:51:08.026Z,4.00
2018-04-29T13:53:36.074Z,3.87
2018-04-29T13:56:04.100Z,4.20
2018-04-29T13:58:32.239Z,4.60
2018-04-29T14:01:00.206Z,4.43
2018-04-29T14:03:28.361Z,3.80
2018-04-29T14:05:56.400Z,4.20
2018-04-29T14:08:24.565Z,4.00
2018-04-29T14:10:52.539Z,4.70
2018-04-29T14:13:20.548Z,3.60
2018-04-29T14:15:48.547Z,3.20
2018-04-29T14:18:16.518Z,4.40
2018-04-29T14:20:44.471Z,4.50
2018-04-29T14:23:12.467Z,3.90
2018-04-29T14:25:40.458Z,4.53
2018-04-29T14:28:08.505Z,3.87
2018-04-29T14:30:36.526Z,3.40
2018-04-29T14:33:04.551Z,3.63
2018-04-29T14:35:32.571Z,3.20
2018-04-29T14:38:00.777Z,3.73
2018-04-29T14:40:28.830Z,4.00
2018-04-29T14:42:56.894Z,3.77
2018-04-29T14:45:24.971Z,3.67
2018-04-29T14:47:52.980Z,3.60
2018-04-29T14:50:21.082Z,5.50
2018-04-29T14:52:49.088Z,3.13
2018-04-29T14:55:17.121Z,4.10
2018-04-29T14:57:45.129Z,4.20
2018-04-29T15:00:13.182Z,4.80
2018-04-29T15:02:41.207Z,4.57
2018-04-29T15:05:09.229Z,3.70
2018-04-29T15:07:37.208Z,5.40
2018-04-29T15:10:05.263Z,6.37
2018-04-29T15:12:33.340Z,4.80
2018-04-29T15:15:01.442Z,5.40
2018-04-29T15:17:29.500Z,4.50
2018-04-29T15:19:57.602Z,10.60
2018-04-29T15:22:25.595Z,4.30
2018-04-29T15:24:53.737Z,7.13
2018-04-29T15:27:21.770Z,4.97
2018-04-29T15:29:49.789Z,4.60
2018-04-29T15:32:17.761Z,4.67
2018-04-29T15:34:45.770Z,6.67
2018-04-29T15:37:13.775Z,6.17
2018-04-29T15:39:42.171Z,6.03
2018-04-29T15:42:10.303Z,5.80
2018-04-29T15:44:38.347Z,5.90
2018-04-29T15:47:06.528Z,5.43
2018-04-29T15:49:34.535Z,6.77
2018-04-29T15:52:02.540Z,6.87
2018-04-29T15:54:30.594Z,8.30
2018-04-29T15:56:58.608Z,12.47
2018-04-29T15:59:26.609Z,9.90
2018-04-29T16:01:54.612Z,6.53
2018-04-29T16:04:22.609Z,7.27
2018-04-29T16:06:50.649Z,4.70
2018-04-29T16:09:18.691Z,6.53
2018-04-29T16:11:46.782Z,6.20
2018-04-29T16:14:14.772Z,5.73
2018-04-29T16:16:42.834Z,4.67
2018-04-29T16:19:10.857Z,4.87
2018-04-29T16:21:38.900Z,5.97
2018-04-29T16:24:06.916Z,4.50
2018-04-29T16:26:34.878Z,4.07
2018-04-29T16:29:02.924Z,4.37
2018-04-29T16:31:30.929Z,5.27
2018-04-29T16:33:58.980Z,4.10
2018-04-29T16:36:27.014Z,4.47
2018-04-29T16:38:55.017Z,7.07
2018-04-29T16:41:23.321Z,6.20
2018-04-29T16:43:51.271Z,6.33
2018-04-29T16:46:19.279Z,6.07
2018-04-29T16:48:47.289Z,4.97
2018-04-29T16:51:15.312Z,4.97
2018-04-29T16:53:43.298Z,4.50
2018-04-29T16:56:11.367Z,3.70
2018-04-29T16:58:39.295Z,4.40
2018-04-29T17:01:07.301Z,4.17
2018-04-29T17:03:35.350Z,4.90
2018-04-29T17:06:03.380Z,4.10
2018-04-29T17:08:31.445Z,3.83
2018-04-29T17:10:59.528Z,4.53
2018-04-29T17:13:27.585Z,5.73
2018-04-29T17:15:55.662Z,5.73
2018-04-29T17:18:23.669Z,4.43
2018-04-29T17:20:51.711Z,4.90
2018-04-29T17:23:19.858Z,5.20
2018-04-29T17:25:47.903Z,6.27
2018-04-29T17:28:15.869Z,6.40
2018-04-29T17:30:43.885Z,6.50
2018-04-29T17:33:11.870Z,5.53
2018-04-29T17:35:39.881Z,7.67
2018-04-29T17:38:07.908Z,6.30
2018-04-29T17:40:35.962Z,6.13
2018-04-29T17:43:04.275Z,6.23
2018-04-29T17:45:32.236Z,5.20
2018-04-29T17:48:00.285Z,6.33
2018-04-29T17:50:28.311Z,5.70
2018-04-29T17:52:56.319Z,5.70
2018-04-29T17:55:24.376Z,5.90
2018-04-29T17:57:52.446Z,5.83
2018-04-29T18:00:20.433Z,5.93
2018-04-29T18:02:48.498Z,6.53
2018-04-29T18:05:16.595Z,6.17
2018-04-29T18:07:44.586Z,6.30
2018-04-29T18:10:12.551Z,6.43
2018-04-29T18:12:40.557Z,5.87
2018-04-29T18:15:08.547Z,5.57
2018-04-29T18:17:36.555Z,5.87
2018-04-29T18:20:04.586Z,6.80
2018-04-29T18:22:32.611Z,7.20
2018-04-29T18:25:00.659Z,6.57
2018-04-29T18:27:28.818Z,6.67
2018-04-29T18:29:56.923Z,5.73
2018-04-29T18:32:24.926Z,6.53
2018-04-29T18:34:53.059Z,5.80
2018-04-29T18:37:20.965Z,6.63
2018-04-29T18:39:48.988Z,6.40
2018-04-29T18:42:16.984Z,6.47
2018-04-29T18:44:45.590Z,5.67
2018-04-29T18:47:13.541Z,5.00
2018-04-29T18:49:41.535Z,5.10
2018-04-29T18:52:09.529Z,5.90
2018-04-29T18:54:37.554Z,6.10
2018-04-29T18:57:05.559Z,5.00
2018-04-29T18:59:33.553Z,4.40
2018-04-29T19:02:01.559Z,5.47
2018-04-29T19:04:29.578Z,4.43
2018-04-29T19:06:57.603Z,5.60
2018-04-29T19:09:25.620Z,4.53
2018-04-29T19:11:53.832Z,4.73
2018-04-29T19:14:21.828Z,5.00
2018-04-29T19:16:49.854Z,4.97
2018-04-29T19:19:17.870Z,4.07
2018-04-29T19:21:45.877Z,5.03
2018-04-29T19:24:14.003Z,6.00
2018-04-29T19:26:41.960Z,5.07
2018-04-29T19:29:10.009Z,4.10
2018-04-29T19:31:38.082Z,4.13
2018-04-29T19:34:06.130Z,3.90
2018-04-29T19:36:34.110Z,4.37
2018-04-29T19:39:02.117Z,4.10
2018-04-29T19:41:30.160Z,4.37
2018-04-29T19:43:58.238Z,4.97
2018-04-29T19:46:26.717Z,4.67
2018-04-29T19:48:54.762Z,4.50
2018-04-29T19:51:22.740Z,4.50
2018-04-29T19:53:50.725Z,3.77
2018-04-29T19:56:19.267Z,4.10
2018-04-29T19:58:47.318Z,3.73
2018-04-29T20:01:15.334Z,4.80
2018-04-29T20:03:43.329Z,4.50
2018-04-29T20:06:11.493Z,4.37
2018-04-29T20:08:39.513Z,3.77
2018-04-29T20:11:07.468Z,3.73
2018-04-29T20:13:35.487Z,5.40
2018-04-29T20:16:03.513Z,4.50
2018-04-29T20:18:31.519Z,4.37
2018-04-29T20:20:59.472Z,3.97
2018-04-29T20:23:27.535Z,4.30
2018-04-29T20:25:55.474Z,3.57
2018-04-29T20:28:23.497Z,4.30
2018-04-29T20:30:51.500Z,3.70
2018-04-29T20:33:19.520Z,4.10
2018-04-29T20:35:47.546Z,4.13
2018-04-29T20:38:15.585Z,3.70
2018-04-29T20:40:43.658Z,3.40
2018-04-29T20:43:11.755Z,4.17
2018-04-29T20:45:39.760Z,3.57
2018-04-29T20:48:08.137Z,4.40
2018-04-29T20:50:36.182Z,5.50
2018-04-29T20:53:04.157Z,2.83
2018-04-29T20:55:32.202Z,4.67
2018-04-29T20:58:00.294Z,3.93
2018-04-29T21:00:28.332Z,4.10
2018-04-29T21:02:56.383Z,4.33
2018-04-29T21:05:24.331Z,4.63
2018-04-29T21:07:52.420Z,4.63
2018-04-29T21:10:20.447Z,3.87
2018-04-29T21:12:48.470Z,3.83
2018-04-29T21:15:16.533Z,4.10
2018-04-29T21:17:44.498Z,4.53
2018-04-29T21:20:12.611Z,4.47
2018-04-29T21:22:40.596Z,4.90
2018-04-29T21:25:08.623Z,4.07
2018-04-29T21:27:36.690Z,5.17
2018-04-29T21:30:04.732Z,4.07
2018-04-29T21:32:32.821Z,4.60
2018-04-29T21:35:00.838Z,5.33
2018-04-29T21:37:28.879Z,5.50
2018-04-29T21:39:56.872Z,5.57
2018-04-29T21:42:24.913Z,5.70
2018-04-29T21:44:52.937Z,5.17
2018-04-29T21:47:20.943Z,4.70
2018-04-29T21:49:49.334Z,3.90
2018-04-29T21:52:17.361Z,4.03
2018-04-29T21:54:45.351Z,5.20
2018-04-29T21:57:13.331Z,3.97
2018-04-29T21:59:41.333Z,4.37
2018-04-29T22:02:09.418Z,5.17
2018-04-29T22:04:37.422Z,4.00
2018-04-29T22:07:05.453Z,4.27
2018-04-29T22:09:33.499Z,4.10
2018-04-29T22:12:01.459Z,4.00
2018-04-29T22:14:29.518Z,3.90
2018-04-29T22:16:57.634Z,5.10
2018-04-29T22:19:25.673Z,5.90
2018-04-29T22:21:53.686Z,4.90
2018-04-29T22:24:21.730Z,3.90
2018-04-29T22:26:49.747Z,5.50
2018-04-29T22:29:17.798Z,4.43
2018-04-29T22:31:45.819Z,6.20
2018-04-29T22:34:13.875Z,4.77
2018-04-29T22:36:41.914Z,5.90
2018-04-29T22:39:09.956Z,7.50
2018-04-29T22:41:38.017Z,6.57
2018-04-29T22:44:06.199Z,7.40
2018-04-29T22:46:34.222Z,8.13
2018-04-29T22:49:02.229Z,7.10
2018-04-29T22:51:30.493Z,9.17
2018-04-29T22:53:58.542Z,8.77
2018-04-29T22:56:26.509Z,7.50
2018-04-29T22:58:54.552Z,7.80
2018-04-29T23:01:22.621Z,7.00
2018-04-29T23:03:50.689Z,6.70
2018-04-29T23:06:18.677Z,7.30
2018-04-29T23:08:46.701Z,6.90
2018-04-29T23:11:14.707Z,7.70
2018-04-29T23:13:42.734Z,6.70
2018-04-29T23:16:10.735Z,6.40
2018-04-29T23:18:38.767Z,7.23
2018-04-29T23:21:06.783Z,6.50
2018-04-29T23:23:34.871Z,5.93
2018-04-29T23:26:02.957Z,6.40
2018-04-29T23:28:30.949Z,6.37
2018-04-29T23:30:59.007Z,6.17
2018-04-29T23:33:27.077Z,6.60
2018-04-29T23:35:55.106Z,5.17
2018-04-29T23:38:23.039Z,5.43
2018-04-29T23:40:51.029Z,5.20
2018-04-29T23:43:19.117Z,4.53
2018-04-29T23:45:47.149Z,5.30
2018-04-29T23:48:15.161Z,5.90
2018-04-29T23:50:43.186Z,5.10
2018-04-29T23:53:11.368Z,4.83
2018-04-29T23:55:39.346Z,5.53
2018-04-29T23:58:07.309Z,4.90
